aviador You're here:

EPPO Decoded Metar

POZNAN in POLAND
Report Time2017-09-23 09:00:00
UTC Time2017-09-23 09:21:54
Flight Rules lifr LIFR
Wind330° at 07 kt
W.Decomp.*RWY 28: 4.9 kt HW 5.0 kt RCW
W.Rank330° ranks 27
Current wind is above 330° avg. (6.3)
Visibility5000 m
Phenomena:Light Rain
Mist
Clouds:Overcast 004 Hf
Expected CloudBase > 400 ft AGL from Temp-Dew spread
Ceiling400 ft
Temp13°C (ISA -1)
Dew Point12°C (94% RH)
AAT11.1°C
QNH1021 hPa
Density Alt56 ft
Elevation302 ft
Report Wrong Elevation
Raw Report
EPPO 230900Z 33007KT 5000 -RA BR OVC004 13/12 Q1021=

Extra information for EPPO:More info

Metar Taf Metar & Taf Last 4 Metars F.Rules Stats Wind Profile Meteogram Temp Stats Airport Information Weather charts Add Link Nearby VenuesMetar ALERT Operation Metar Decoded Social comments